sensor_id;sensor_type;location;lat;lon;timestamp;pressure;altitude;pressure_sealevel;temperature;humidity
53932;BME280;39844;52.496;13.482;2023-08-17T00:01:49;101801.78;;;21.10;78.02
53932;BME280;39844;52.496;13.482;2023-08-17T00:04:14;101804.44;;;21.10;79.23
53932;BME280;39844;52.496;13.482;2023-08-17T00:06:39;101801.91;;;21.06;79.12
53932;BME280;39844;52.496;13.482;2023-08-17T00:09:05;101792.22;;;21.02;78.55
53932;BME280;39844;52.496;13.482;2023-08-17T00:11:30;101791.41;;;21.00;79.10
53932;BME280;39844;52.496;13.482;2023-08-17T00:13:55;101787.88;;;20.98;79.45
53932;BME280;39844;52.496;13.482;2023-08-17T00:16:21;101799.53;;;20.95;79.00
53932;BME280;39844;52.496;13.482;2023-08-17T00:18:47;101785.34;;;20.93;79.56
53932;BME280;39844;52.496;13.482;2023-08-17T00:21:12;101776.56;;;20.90;79.23
53932;BME280;39844;52.496;13.482;2023-08-17T00:23:38;101778.44;;;20.86;79.14
53932;BME280;39844;52.496;13.482;2023-08-17T00:26:03;101778.59;;;20.82;79.58
53932;BME280;39844;52.496;13.482;2023-08-17T00:28:28;101759.91;;;20.82;80.76
53932;BME280;39844;52.496;13.482;2023-08-17T00:30:54;101748.44;;;20.78;80.52
53932;BME280;39844;52.496;13.482;2023-08-17T00:33:19;101745.03;;;20.73;79.69
53932;BME280;39844;52.496;13.482;2023-08-17T00:35:44;101739.75;;;20.71;80.52
53932;BME280;39844;52.496;13.482;2023-08-17T00:38:09;101736.28;;;20.68;80.32
53932;BME280;39844;52.496;13.482;2023-08-17T00:40:35;101740.84;;;20.64;80.65
53932;BME280;39844;52.496;13.482;2023-08-17T00:43:00;101751.63;;;20.61;80.78
53932;BME280;39844;52.496;13.482;2023-08-17T00:45:26;101751.72;;;20.57;81.49
53932;BME280;39844;52.496;13.482;2023-08-17T00:47:55;101751.84;;;20.52;81.12
53932;BME280;39844;52.496;13.482;2023-08-17T00:50:22;101766.16;;;20.50;81.85
53932;BME280;39844;52.496;13.482;2023-08-17T00:52:47;101762.66;;;20.48;82.18
53932;BME280;39844;52.496;13.482;2023-08-17T00:55:12;101758.25;;;20.47;82.18
53932;BME280;39844;52.496;13.482;2023-08-17T00:57:39;101764.59;;;20.43;82.04
53932;BME280;39844;52.496;13.482;2023-08-17T01:00:05;101763.75;;;20.41;82.40
53932;BME280;39844;52.496;13.482;2023-08-17T01:02:31;101761.13;;;20.39;82.22
53932;BME280;39844;52.496;13.482;2023-08-17T01:04:56;101767.38;;;20.38;83.13
53932;BME280;39844;52.496;13.482;2023-08-17T01:07:22;101763.09;;;20.33;82.08
53932;BME280;39844;52.496;13.482;2023-08-17T01:09:47;101769.34;;;20.32;82.99
53932;BME280;39844;52.496;13.482;2023-08-17T01:12:38;101773.81;;;20.31;83.33
53932;BME280;39844;52.496;13.482;2023-08-17T01:17:42;101764.22;;;20.24;82.25
53932;BME280;39844;52.496;13.482;2023-08-17T01:20:08;101761.56;;;20.23;82.40
53932;BME280;39844;52.496;13.482;2023-08-17T01:22:35;101762.56;;;20.18;83.02
53932;BME280;39844;52.496;13.482;2023-08-17T01:25:00;101759.06;;;20.16;82.92
53932;BME280;39844;52.496;13.482;2023-08-17T01:27:36;101755.56;;;20.14;83.17
53932;BME280;39844;52.496;13.482;2023-08-17T01:30:02;101756.50;;;20.13;83.25
53932;BME280;39844;52.496;13.482;2023-08-17T01:32:40;101761.84;;;20.12;82.92
53932;BME280;39844;52.496;13.482;2023-08-17T01:35:28;101760.19;;;20.08;82.84
53932;BME280;39844;52.496;13.482;2023-08-17T01:37:58;101757.53;;;20.06;82.47
53932;BME280;39844;52.496;13.482;2023-08-17T01:40:26;101760.25;;;20.05;82.75
53932;BME280;39844;52.496;13.482;2023-08-17T01:42:53;101766.56;;;20.02;82.42
53932;BME280;39844;52.496;13.482;2023-08-17T01:45:19;101757.63;;;20.03;83.21
53932;BME280;39844;52.496;13.482;2023-08-17T01:47:44;101761.22;;;20.02;82.59
53932;BME280;39844;52.496;13.482;2023-08-17T01:50:10;101755.97;;;19.99;83.08
53932;BME280;39844;52.496;13.482;2023-08-17T01:52:35;101746.19;;;19.98;82.35
53932;BME280;39844;52.496;13.482;2023-08-17T01:55:00;101757.88;;;19.94;82.86
53932;BME280;39844;52.496;13.482;2023-08-17T01:57:26;101762.38;;;19.92;83.19
53932;BME280;39844;52.496;13.482;2023-08-17T01:59:51;101759.78;;;19.89;83.59
53932;BME280;39844;52.496;13.482;2023-08-17T02:02:16;101766.00;;;19.90;84.50
53932;BME280;39844;52.496;13.482;2023-08-17T02:04:41;101769.63;;;19.86;83.95
53932;BME280;39844;52.496;13.482;2023-08-17T02:07:07;101774.13;;;19.85;84.57
53932;BME280;39844;52.496;13.482;2023-08-17T02:09:32;101772.34;;;19.84;83.83
53932;BME280;39844;52.496;13.482;2023-08-17T02:11:57;101758.28;;;19.79;84.19
53932;BME280;39844;52.496;13.482;2023-08-17T02:14:23;101756.50;;;19.78;83.99
53932;BME280;39844;52.496;13.482;2023-08-17T02:16:48;101755.69;;;19.76;84.44
53932;BME280;39844;52.496;13.482;2023-08-17T02:19:13;101761.06;;;19.75;84.14
53932;BME280;39844;52.496;13.482;2023-08-17T02:21:38;101759.28;;;19.75;85.17
53932;BME280;39844;52.496;13.482;2023-08-17T02:24:04;101755.75;;;19.73;84.63
53932;BME280;39844;52.496;13.482;2023-08-17T02:26:30;101760.25;;;19.71;85.12
53932;BME280;39844;52.496;13.482;2023-08-17T02:28:55;101764.69;;;19.71;85.40
53932;BME280;39844;52.496;13.482;2023-08-17T02:31:20;101762.97;;;19.70;85.14
53932;BME280;39844;52.496;13.482;2023-08-17T02:33:46;101763.91;;;19.67;84.47
53932;BME280;39844;52.496;13.482;2023-08-17T02:36:11;101769.25;;;19.67;85.31
53932;BME280;39844;52.496;13.482;2023-08-17T02:38:36;101755.09;;;19.65;85.02
53932;BME280;39844;52.496;13.482;2023-08-17T02:41:02;101759.53;;;19.65;85.27
53932;BME280;39844;52.496;13.482;2023-08-17T02:43:27;101755.16;;;19.62;85.54
53932;BME280;39844;52.496;13.482;2023-08-17T02:45:52;101749.84;;;19.61;84.86
53932;BME280;39844;52.496;13.482;2023-08-17T02:48:18;101738.38;;;19.59;84.76
53932;BME280;39844;52.496;13.482;2023-08-17T02:50:43;101741.97;;;19.56;85.07
53932;BME280;39844;52.496;13.482;2023-08-17T02:53:08;101737.59;;;19.55;85.11
53932;BME280;39844;52.496;13.482;2023-08-17T02:55:34;101726.13;;;19.51;85.04
53932;BME280;39844;52.496;13.482;2023-08-17T02:57:59;101731.50;;;19.50;85.46
53932;BME280;39844;52.496;13.482;2023-08-17T03:00:24;101728.84;;;19.50;85.21
53932;BME280;39844;52.496;13.482;2023-08-17T03:02:49;101730.63;;;19.48;84.85
53932;BME280;39844;52.496;13.482;2023-08-17T03:05:15;101726.25;;;19.47;85.24
53932;BME280;39844;52.496;13.482;2023-08-17T03:07:40;101733.38;;;19.45;84.97
53932;BME280;39844;52.496;13.482;2023-08-17T03:10:06;101725.38;;;19.45;84.83
53932;BME280;39844;52.496;13.482;2023-08-17T03:12:31;101730.75;;;19.43;84.82
53932;BME280;39844;52.496;13.482;2023-08-17T03:14:56;101726.31;;;19.42;84.35
53932;BME280;39844;52.496;13.482;2023-08-17T03:17:22;101736.13;;;19.42;84.88
53932;BME280;39844;52.496;13.482;2023-08-17T03:19:47;101730.81;;;19.42;84.31
53932;BME280;39844;52.496;13.482;2023-08-17T03:22:12;101725.47;;;19.42;84.04
53932;BME280;39844;52.496;13.482;2023-08-17T03:24:37;101728.13;;;19.42;84.23
53932;BME280;39844;52.496;13.482;2023-08-17T03:27:03;101729.03;;;19.41;83.75
53932;BME280;39844;52.496;13.482;2023-08-17T03:29:28;101719.25;;;19.41;83.20
53932;BME280;39844;52.496;13.482;2023-08-17T03:31:53;101725.53;;;19.39;81.97
53932;BME280;39844;52.496;13.482;2023-08-17T03:34:19;101724.59;;;19.40;81.90
53932;BME280;39844;52.496;13.482;2023-08-17T03:36:44;101729.09;;;19.38;81.54
53932;BME280;39844;52.496;13.482;2023-08-17T03:39:09;101723.78;;;19.38;80.67
53932;BME280;39844;52.496;13.482;2023-08-17T03:41:35;101722.03;;;19.37;81.00
53932;BME280;39844;52.496;13.482;2023-08-17T03:44:00;101715.78;;;19.38;80.46
53932;BME280;39844;52.496;13.482;2023-08-17T03:46:25;101726.47;;;19.36;80.39
53932;BME280;39844;52.496;13.482;2023-08-17T03:48:50;101728.22;;;19.37;80.41
53932;BME280;39844;52.496;13.482;2023-08-17T03:51:16;101729.09;;;19.38;80.56
53932;BME280;39844;52.496;13.482;2023-08-17T03:53:41;101730.88;;;19.39;79.89
53932;BME280;39844;52.496;13.482;2023-08-17T03:56:06;101730.88;;;19.37;80.05
53932;BME280;39844;52.496;13.482;2023-08-17T03:58:31;101730.00;;;19.38;80.17
53932;BME280;39844;52.496;13.482;2023-08-17T04:00:57;101723.78;;;19.38;80.30
53932;BME280;39844;52.496;13.482;2023-08-17T04:03:24;101722.03;;;19.37;79.50
53932;BME280;39844;52.496;13.482;2023-08-17T04:05:49;101716.66;;;19.38;79.67
53932;BME280;39844;52.496;13.482;2023-08-17T04:08:15;101721.94;;;19.40;79.76
53932;BME280;39844;52.496;13.482;2023-08-17T04:10:40;101716.72;;;19.37;79.25
53932;BME280;39844;52.496;13.482;2023-08-17T04:13:05;101721.94;;;19.40;80.07
53932;BME280;39844;52.496;13.482;2023-08-17T04:15:31;101715.78;;;19.39;79.68
53932;BME280;39844;52.496;13.482;2023-08-17T04:17:56;101715.78;;;19.39;79.31
53932;BME280;39844;52.496;13.482;2023-08-17T04:20:21;101705.97;;;19.40;78.70
53932;BME280;39844;52.496;13.482;2023-08-17T04:22:46;101710.41;;;19.41;78.72
53932;BME280;39844;52.496;13.482;2023-08-17T04:25:13;101708.56;;;19.43;78.58
53932;BME280;39844;52.496;13.482;2023-08-17T04:27:38;101716.56;;;19.43;77.50
53932;BME280;39844;52.496;13.482;2023-08-17T04:30:03;101712.16;;;19.42;77.14
53932;BME280;39844;52.496;13.482;2023-08-17T04:32:29;101709.44;;;19.43;76.38
53932;BME280;39844;52.496;13.482;2023-08-17T04:34:54;101721.00;;;19.42;76.81
53932;BME280;39844;52.496;13.482;2023-08-17T04:37:19;101714.72;;;19.45;76.84
53932;BME280;39844;52.496;13.482;2023-08-17T04:39:45;101711.16;;;19.46;76.68
53932;BME280;39844;52.496;13.482;2023-08-17T04:42:10;101708.44;;;19.47;76.15
53932;BME280;39844;52.496;13.482;2023-08-17T04:44:35;101708.38;;;19.50;75.75
53932;BME280;39844;52.496;13.482;2023-08-17T04:47:01;101710.09;;;19.53;76.18
53932;BME280;39844;52.496;13.482;2023-08-17T04:49:26;101719.84;;;19.54;76.15
53932;BME280;39844;52.496;13.482;2023-08-17T04:51:52;101715.34;;;19.56;75.66
53932;BME280;39844;52.496;13.482;2023-08-17T04:54:17;101720.53;;;19.61;75.47
53932;BME280;39844;52.496;13.482;2023-08-17T04:56:43;101722.19;;;19.66;75.43
53932;BME280;39844;52.496;13.482;2023-08-17T04:59:08;101720.34;;;19.68;74.64
53932;BME280;39844;52.496;13.482;2023-08-17T05:01:34;101715.88;;;19.70;74.14
53932;BME280;39844;52.496;13.482;2023-08-17T05:03:59;101719.31;;;19.74;74.19
53932;BME280;39844;52.496;13.482;2023-08-17T05:06:24;101727.31;;;19.74;73.92
53932;BME280;39844;52.496;13.482;2023-08-17T05:08:49;101727.25;;;19.77;74.22
53932;BME280;39844;52.496;13.482;2023-08-17T05:11:15;101726.28;;;19.79;73.64
53932;BME280;39844;52.496;13.482;2023-08-17T05:13:40;101738.59;;;19.83;74.00
53932;BME280;39844;52.496;13.482;2023-08-17T05:16:05;101738.47;;;19.89;74.31
53932;BME280;39844;52.496;13.482;2023-08-17T05:18:31;101734.78;;;19.93;74.15
53932;BME280;39844;52.496;13.482;2023-08-17T05:20:56;101738.31;;;19.95;73.53
53932;BME280;39844;52.496;13.482;2023-08-17T05:23:21;101739.06;;;20.00;73.31
53932;BME280;39844;52.496;13.482;2023-08-17T05:25:47;101746.09;;;20.03;72.48
53932;BME280;39844;52.496;13.482;2023-08-17T05:28:13;101729.94;;;20.09;73.09
53932;BME280;39844;52.496;13.482;2023-08-17T05:30:38;101725.31;;;20.15;73.48
53932;BME280;39844;52.496;13.482;2023-08-17T05:33:04;101732.22;;;20.23;73.80
53932;BME280;39844;52.496;13.482;2023-08-17T05:35:29;101726.78;;;20.29;72.92
53932;BME280;39844;52.496;13.482;2023-08-17T05:37:54;101733.69;;;20.36;72.90
53932;BME280;39844;52.496;13.482;2023-08-17T05:40:20;101728.25;;;20.39;72.13
53932;BME280;39844;52.496;13.482;2023-08-17T05:42:45;101724.56;;;20.43;72.23
53932;BME280;39844;52.496;13.482;2023-08-17T05:45:10;101727.09;;;20.47;72.55
53932;BME280;39844;52.496;13.482;2023-08-17T05:47:36;101718.97;;;20.52;72.61
53932;BME280;39844;52.496;13.482;2023-08-17T05:50:01;101729.63;;;20.52;71.59
53932;BME280;39844;52.496;13.482;2023-08-17T05:52:26;101720.72;;;20.53;71.17
53932;BME280;39844;52.496;13.482;2023-08-17T05:54:52;101735.72;;;20.57;71.24
53932;BME280;39844;52.496;13.482;2023-08-17T05:57:17;101735.53;;;20.63;72.01
53932;BME280;39844;52.496;13.482;2023-08-17T05:59:42;101744.47;;;20.62;70.54
53932;BME280;39844;52.496;13.482;2023-08-17T06:02:07;101764.81;;;20.66;71.11
53932;BME280;39844;52.496;13.482;2023-08-17T06:04:33;101768.22;;;20.71;72.21
53932;BME280;39844;52.496;13.482;2023-08-17T06:06:58;101783.13;;;20.78;73.57
53932;BME280;39844;52.496;13.482;2023-08-17T06:09:23;101798.25;;;20.79;71.88
53932;BME280;39844;52.496;13.482;2023-08-17T06:11:49;101817.84;;;20.78;73.20
53932;BME280;39844;52.496;13.482;2023-08-17T06:14:14;101839.28;;;20.75;72.50
53932;BME280;39844;52.496;13.482;2023-08-17T06:16:39;101836.78;;;20.69;72.51
53932;BME280;39844;52.496;13.482;2023-08-17T06:19:04;101829.03;;;20.60;71.92
53932;BME280;39844;52.496;13.482;2023-08-17T06:21:30;101820.28;;;20.55;73.25
53932;BME280;39844;52.496;13.482;2023-08-17T06:23:55;101816.72;;;20.54;74.82
53932;BME280;39844;52.496;13.482;2023-08-17T06:26:20;101810.56;;;20.52;74.15
53932;BME280;39844;52.496;13.482;2023-08-17T06:28:46;101825.78;;;20.49;75.50
53932;BME280;39844;52.496;13.482;2023-08-17T06:31:14;101814.25;;;20.48;75.12
53932;BME280;39844;52.496;13.482;2023-08-17T06:33:40;101807.13;;;20.49;77.15
53932;BME280;39844;52.496;13.482;2023-08-17T06:36:05;101806.22;;;20.48;78.86
53932;BME280;39844;52.496;13.482;2023-08-17T06:38:30;101805.28;;;20.49;79.46
53932;BME280;39844;52.496;13.482;2023-08-17T06:40:56;101800.84;;;20.50;77.98
53932;BME280;39844;52.496;13.482;2023-08-17T06:43:21;101788.31;;;20.52;78.42
53932;BME280;39844;52.496;13.482;2023-08-17T06:45:46;101785.56;;;20.56;75.89
53932;BME280;39844;52.496;13.482;2023-08-17T06:48:12;101789.75;;;20.65;74.52
53932;BME280;39844;52.496;13.482;2023-08-17T06:50:37;101785.88;;;20.75;75.20
53932;BME280;39844;52.496;13.482;2023-08-17T06:53:02;101779.56;;;20.79;73.05
53932;BME280;39844;52.496;13.482;2023-08-17T06:55:28;101782.00;;;20.87;73.19
53932;BME280;39844;52.496;13.482;2023-08-17T06:57:53;101791.72;;;20.89;71.54
53932;BME280;39844;52.496;13.482;2023-08-17T07:00:19;101792.47;;;20.94;71.31
53932;BME280;39844;52.496;13.482;2023-08-17T07:02:44;101795.78;;;21.02;72.69
53932;BME280;39844;52.496;13.482;2023-08-17T07:05:09;101792.78;;;21.13;74.90
53932;BME280;39844;52.496;13.482;2023-08-17T07:07:34;101786.47;;;21.15;71.84
53932;BME280;39844;52.496;13.482;2023-08-17T07:10:00;101789.88;;;21.20;71.23
53932;BME280;39844;52.496;13.482;2023-08-17T07:12:25;101779.00;;;21.28;71.40
53932;BME280;39844;52.496;13.482;2023-08-17T07:14:50;101780.53;;;21.35;71.43
53932;BME280;39844;52.496;13.482;2023-08-17T07:17:16;101788.47;;;21.38;70.53
53932;BME280;39844;52.496;13.482;2023-08-17T07:19:41;101783.88;;;21.41;70.37
53932;BME280;39844;52.496;13.482;2023-08-17T07:22:07;101783.63;;;21.49;70.65
53932;BME280;39844;52.496;13.482;2023-08-17T07:24:32;101788.72;;;21.57;69.79
53932;BME280;39844;52.496;13.482;2023-08-17T07:26:57;101782.31;;;21.62;68.66
53932;BME280;39844;52.496;13.482;2023-08-17T07:29:23;101791.06;;;21.67;68.04
53932;BME280;39844;52.496;13.482;2023-08-17T07:31:48;101790.00;;;21.73;68.45
53932;BME280;39844;52.496;13.482;2023-08-17T07:34:13;101786.50;;;21.71;67.85
53932;BME280;39844;52.496;13.482;2023-08-17T07:36:38;101786.59;;;21.68;68.11
53932;BME280;39844;52.496;13.482;2023-08-17T07:39:04;101787.50;;;21.67;69.17
53932;BME280;39844;52.496;13.482;2023-08-17T07:41:29;101777.69;;;21.67;68.97
53932;BME280;39844;52.496;13.482;2023-08-17T07:43:54;101777.75;;;21.66;68.58
53932;BME280;39844;52.496;13.482;2023-08-17T07:46:20;101778.53;;;21.69;68.68
53932;BME280;39844;52.496;13.482;2023-08-17T07:48:45;101789.13;;;21.72;68.54
53932;BME280;39844;52.496;13.482;2023-08-17T07:51:10;101789.13;;;21.72;68.39
53932;BME280;39844;52.496;13.482;2023-08-17T07:53:36;101779.22;;;21.76;68.38
53932;BME280;39844;52.496;13.482;2023-08-17T07:56:01;101781.72;;;21.80;68.13
53932;BME280;39844;52.496;13.482;2023-08-17T07:58:26;101775.34;;;21.86;68.09
53932;BME280;39844;52.496;13.482;2023-08-17T08:00:51;101772.50;;;21.90;67.59
53932;BME280;39844;52.496;13.482;2023-08-17T08:03:17;101764.47;;;21.90;67.76
53932;BME280;39844;52.496;13.482;2023-08-17T08:05:42;101771.63;;;21.90;67.65
53932;BME280;39844;52.496;13.482;2023-08-17T08:08:07;101776.78;;;21.96;68.25
53932;BME280;39844;52.496;13.482;2023-08-17T08:10:33;101774.72;;;22.04;68.67
53932;BME280;39844;52.496;13.482;2023-08-17T08:12:58;101761.81;;;22.15;68.95
53932;BME280;39844;52.496;13.482;2023-08-17T08:15:23;101752.78;;;22.19;67.82
53932;BME280;39844;52.496;13.482;2023-08-17T08:17:49;101752.81;;;22.18;67.07
53932;BME280;39844;52.496;13.482;2023-08-17T08:20:14;101756.38;;;22.18;67.45
53932;BME280;39844;52.496;13.482;2023-08-17T08:22:40;101747.53;;;22.16;67.20
53932;BME280;39844;52.496;13.482;2023-08-17T08:25:05;101740.31;;;22.18;67.57
53932;BME280;39844;52.496;13.482;2023-08-17T08:27:30;101740.81;;;22.29;68.57
53932;BME280;39844;52.496;13.482;2023-08-17T08:29:56;101736.06;;;22.37;68.28
53932;BME280;39844;52.496;13.482;2023-08-17T08:32:21;101737.34;;;22.50;69.11
53932;BME280;39844;52.496;13.482;2023-08-17T08:34:46;101734.97;;;22.68;69.66
53932;BME280;39844;52.496;13.482;2023-08-17T08:37:12;101732.50;;;22.85;69.48
53932;BME280;39844;52.496;13.482;2023-08-17T08:42:15;101731.25;;;22.93;66.36
53932;BME280;39844;52.496;13.482;2023-08-17T08:44:40;101734.69;;;22.97;66.47
53932;BME280;39844;52.496;13.482;2023-08-17T08:47:06;101726.31;;;23.06;65.49
53932;BME280;39844;52.496;13.482;2023-08-17T08:49:33;101723.69;;;23.04;66.54
53932;BME280;39844;52.496;13.482;2023-08-17T08:52:07;101727.16;;;23.06;66.46
53932;BME280;39844;52.496;13.482;2023-08-17T08:54:32;101717.31;;;23.07;66.32
53932;BME280;39844;52.496;13.482;2023-08-17T08:57:03;101714.03;;;23.00;66.81
53932;BME280;39844;52.496;13.482;2023-08-17T08:59:29;101704.63;;;22.90;67.03
53932;BME280;39844;52.496;13.482;2023-08-17T09:01:57;101702.25;;;22.83;67.61
53932;BME280;39844;52.496;13.482;2023-08-17T09:04:23;101708.59;;;22.80;67.67
53932;BME280;39844;52.496;13.482;2023-08-17T09:06:50;101702.25;;;22.83;69.00
53932;BME280;39844;52.496;13.482;2023-08-17T09:09:16;101706.75;;;22.81;68.28
53932;BME280;39844;52.496;13.482;2023-08-17T09:11:43;101699.84;;;22.75;68.56
53932;BME280;39844;52.496;13.482;2023-08-17T09:14:08;101680.56;;;22.65;69.03
53932;BME280;39844;52.496;13.482;2023-08-17T09:16:34;101686.16;;;22.59;69.44
53932;BME280;39844;52.496;13.482;2023-08-17T09:18:59;101688.16;;;22.53;69.77
53932;BME280;39844;52.496;13.482;2023-08-17T09:21:24;101691.03;;;22.48;70.68
53932;BME280;39844;52.496;13.482;2023-08-17T09:23:54;101694.75;;;22.44;72.15
53932;BME280;39844;52.496;13.482;2023-08-17T09:26:20;101692.13;;;22.43;72.13
53932;BME280;39844;52.496;13.482;2023-08-17T09:28:46;101698.13;;;22.49;73.16
53932;BME280;39844;52.496;13.482;2023-08-17T09:31:11;101708.28;;;22.64;72.89
53932;BME280;39844;52.496;13.482;2023-08-17T09:33:37;101700.47;;;22.82;72.71
53932;BME280;39844;52.496;13.482;2023-08-17T09:36:02;101701.31;;;23.05;72.62
53932;BME280;39844;52.496;13.482;2023-08-17T09:38:28;101692.72;;;23.19;69.77
53932;BME280;39844;52.496;13.482;2023-08-17T09:40:53;101704.53;;;23.37;69.91
53932;BME280;39844;52.496;13.482;2023-08-17T09:43:18;101695.66;;;23.56;68.37
53932;BME280;39844;52.496;13.482;2023-08-17T09:45:45;101696.28;;;23.63;67.70
53932;BME280;39844;52.496;13.482;2023-08-17T09:48:10;101694.91;;;23.74;67.12
53932;BME280;39844;52.496;13.482;2023-08-17T09:50:38;101687.78;;;23.73;66.94
53932;BME280;39844;52.496;13.482;2023-08-17T09:53:03;101687.69;;;23.75;66.14
53932;BME280;39844;52.496;13.482;2023-08-17T09:55:33;101681.31;;;23.77;66.28
53932;BME280;39844;52.496;13.482;2023-08-17T09:58:02;101685.66;;;23.81;66.46
53932;BME280;39844;52.496;13.482;2023-08-17T10:00:36;101694.16;;;23.91;66.66
53932;BME280;39844;52.496;13.482;2023-08-17T10:03:06;101685.09;;;23.94;66.39
53932;BME280;39844;52.496;13.482;2023-08-17T10:05:38;101680.94;;;24.07;66.82
53932;BME280;39844;52.496;13.482;2023-08-17T10:08:06;101679.88;;;24.11;65.23
53932;BME280;39844;52.496;13.482;2023-08-17T10:10:38;101675.47;;;24.10;66.04
53932;BME280;39844;52.496;13.482;2023-08-17T10:15:55;101670.69;;;23.96;66.19
53932;BME280;39844;52.496;13.482;2023-08-17T10:18:37;101674.72;;;23.86;66.99
53932;BME280;39844;52.496;13.482;2023-08-17T10:21:27;101678.06;;;23.71;66.87
53932;BME280;39844;52.496;13.482;2023-08-17T10:24:03;101677.59;;;23.61;68.51
53932;BME280;39844;52.496;13.482;2023-08-17T10:26:33;101677.16;;;23.50;69.01
53932;BME280;39844;52.496;13.482;2023-08-17T10:29:04;101674.00;;;23.41;69.03
53932;BME280;39844;52.496;13.482;2023-08-17T10:31:37;101672.47;;;23.34;70.26
53932;BME280;39844;52.496;13.482;2023-08-17T10:34:06;101684.94;;;23.35;70.88
53932;BME280;39844;52.496;13.482;2023-08-17T10:36:40;101689.19;;;23.40;71.20
53932;BME280;39844;52.496;13.482;2023-08-17T10:39:24;101688.31;;;23.61;71.60
53932;BME280;39844;52.496;13.482;2023-08-17T10:41:55;101685.66;;;23.81;69.89
53932;BME280;39844;52.496;13.482;2023-08-17T10:44:50;101687.31;;;24.04;70.05
53932;BME280;39844;52.496;13.482;2023-08-17T10:47:24;101664.97;;;24.24;67.80
53932;BME280;39844;52.496;13.482;2023-08-17T10:50:06;101669.06;;;24.51;67.51
53932;BME280;39844;52.496;13.482;2023-08-17T10:52:39;101665.84;;;25.00;66.85
53932;BME280;39844;52.496;13.482;2023-08-17T10:55:09;101659.81;;;25.50;65.03
53932;BME280;39844;52.496;13.482;2023-08-17T10:57:40;101665.78;;;26.06;63.42
53932;BME280;39844;52.496;13.482;2023-08-17T11:00:22;101660.06;;;26.78;61.17
53932;BME280;39844;52.496;13.482;2023-08-17T11:03:07;101655.34;;;27.28;59.17
53932;BME280;39844;52.496;13.482;2023-08-17T11:05:45;101650.22;;;27.69;56.31
53932;BME280;39844;52.496;13.482;2023-08-17T11:08:39;101641.53;;;28.08;55.41
53932;BME280;39844;52.496;13.482;2023-08-17T11:11:10;101634.03;;;28.27;55.41
53932;BME280;39844;52.496;13.482;2023-08-17T11:13:39;101634.88;;;28.70;55.80
53932;BME280;39844;52.496;13.482;2023-08-17T11:16:09;101636.09;;;28.93;53.23
53932;BME280;39844;52.496;13.482;2023-08-17T11:18:37;101637.34;;;29.14;52.88
53932;BME280;39844;52.496;13.482;2023-08-17T11:21:04;101645.66;;;29.25;51.52
53932;BME280;39844;52.496;13.482;2023-08-17T11:23:36;101640.97;;;29.41;51.34
53932;BME280;39844;52.496;13.482;2023-08-17T11:26:08;101646.94;;;29.46;50.84
53932;BME280;39844;52.496;13.482;2023-08-17T11:28:39;101641.06;;;29.52;50.16
53932;BME280;39844;52.496;13.482;2023-08-17T11:31:13;101639.94;;;29.29;50.73
53932;BME280;39844;52.496;13.482;2023-08-17T11:33:41;101635.59;;;28.86;51.42
53932;BME280;39844;52.496;13.482;2023-08-17T11:36:07;101645.03;;;28.52;53.38
53932;BME280;39844;52.496;13.482;2023-08-17T11:38:37;101634.13;;;28.11;54.60
53932;BME280;39844;52.496;13.482;2023-08-17T11:41:06;101647.72;;;27.66;55.10
53932;BME280;39844;52.496;13.482;2023-08-17T11:43:32;101644.97;;;27.36;56.90
53932;BME280;39844;52.496;13.482;2023-08-17T11:46:01;101640.59;;;27.20;57.89
53932;BME280;39844;52.496;13.482;2023-08-17T11:48:26;101642.59;;;27.01;58.44
53932;BME280;39844;52.496;13.482;2023-08-17T11:50:53;101646.09;;;26.87;59.39
53932;BME280;39844;52.496;13.482;2023-08-17T11:53:18;101646.31;;;26.82;60.37
53932;BME280;39844;52.496;13.482;2023-08-17T11:55:47;101639.38;;;26.78;60.78
53932;BME280;39844;52.496;13.482;2023-08-17T11:58:15;101639.00;;;26.69;60.39
53932;BME280;39844;52.496;13.482;2023-08-17T12:00:42;101635.88;;;26.61;60.74
53932;BME280;39844;52.496;13.482;2023-08-17T12:03:08;101631.63;;;26.57;61.69
53932;BME280;39844;52.496;13.482;2023-08-17T12:05:35;101631.53;;;26.58;61.75
53932;BME280;39844;52.496;13.482;2023-08-17T12:08:00;101641.59;;;26.55;62.03
53932;BME280;39844;52.496;13.482;2023-08-17T12:10:32;101634.13;;;26.60;62.22
53932;BME280;39844;52.496;13.482;2023-08-17T12:12:58;101629.63;;;26.76;62.57
53932;BME280;39844;52.496;13.482;2023-08-17T12:15:24;101626.09;;;26.91;62.69
53932;BME280;39844;52.496;13.482;2023-08-17T12:17:49;101628.00;;;26.89;61.29
53932;BME280;39844;52.496;13.482;2023-08-17T12:20:16;101623.94;;;26.82;61.68
53932;BME280;39844;52.496;13.482;2023-08-17T12:22:42;101615.41;;;26.89;62.18
53932;BME280;39844;52.496;13.482;2023-08-17T12:25:08;101629.63;;;27.23;61.79
53932;BME280;39844;52.496;13.482;2023-08-17T12:27:35;101619.31;;;27.29;61.62
53932;BME280;39844;52.496;13.482;2023-08-17T12:30:00;101615.31;;;27.36;61.99
53932;BME280;39844;52.496;13.482;2023-08-17T12:32:25;101619.22;;;27.76;60.77
53932;BME280;39844;52.496;13.482;2023-08-17T12:34:51;101614.75;;;28.19;59.75
53932;BME280;39844;52.496;13.482;2023-08-17T12:37:20;101604.69;;;28.49;58.24
53932;BME280;39844;52.496;13.482;2023-08-17T12:39:46;101607.28;;;28.51;58.11
53932;BME280;39844;52.496;13.482;2023-08-17T12:42:11;101604.69;;;28.49;57.63
53932;BME280;39844;52.496;13.482;2023-08-17T12:44:36;101608.44;;;28.61;58.15
53932;BME280;39844;52.496;13.482;2023-08-17T12:47:01;101598.50;;;28.61;55.49